createdAt,value
2017-11-07T00:02:14.434Z,58.10
2017-11-07T00:04:44.300Z,56.80
2017-11-07T00:07:14.136Z,51.90
2017-11-07T00:09:44.026Z,62.30
2017-11-07T00:12:13.846Z,50.80
2017-11-07T00:14:43.698Z,52.57
2017-11-07T00:17:13.579Z,50.03
2017-11-07T00:19:43.448Z,51.10
2017-11-07T00:22:13.298Z,54.10
2017-11-07T00:24:43.125Z,49.53
2017-11-07T00:27:12.980Z,63.97
2017-11-07T00:29:42.825Z,58.40
2017-11-07T00:32:12.723Z,56.80
2017-11-07T00:34:42.558Z,57.60
2017-11-07T00:37:12.427Z,46.93
2017-11-07T00:39:42.290Z,47.27
2017-11-07T00:42:12.167Z,45.07
2017-11-07T00:44:41.990Z,44.27
2017-11-07T00:47:11.862Z,41.37
2017-11-07T00:49:41.706Z,44.03
2017-11-07T00:52:11.566Z,42.83
2017-11-07T00:54:41.411Z,42.27
2017-11-07T00:57:11.267Z,39.80
2017-11-07T00:59:41.113Z,33.17
2017-11-07T01:02:10.953Z,48.20
2017-11-07T01:04:40.813Z,44.60
2017-11-07T01:07:10.650Z,38.17
2017-11-07T01:09:40.509Z,35.10
2017-11-07T01:12:10.327Z,42.43
2017-11-07T01:14:40.162Z,41.90
2017-11-07T01:17:09.994Z,41.90
2017-11-07T01:19:39.873Z,40.43
2017-11-07T01:22:09.753Z,37.27
2017-11-07T01:24:39.610Z,38.60
2017-11-07T01:27:09.470Z,39.47
2017-11-07T01:29:39.304Z,38.97
2017-11-07T01:32:09.150Z,40.63
2017-11-07T01:34:39.010Z,38.80
2017-11-07T01:37:08.850Z,37.33
2017-11-07T01:39:38.666Z,37.13
2017-11-07T01:42:08.511Z,39.73
2017-11-07T01:44:38.346Z,40.30
2017-11-07T01:47:08.192Z,35.93
2017-11-07T01:49:38.018Z,38.57
2017-11-07T01:52:07.878Z,41.50
2017-11-07T01:54:37.719Z,33.57
2017-11-07T01:57:07.603Z,31.47
2017-11-07T01:59:37.450Z,35.43
2017-11-07T02:02:07.306Z,34.87
2017-11-07T02:04:37.160Z,32.30
2017-11-07T02:07:06.990Z,30.53
2017-11-07T02:09:36.851Z,35.00
2017-11-07T02:12:06.691Z,24.23
2017-11-07T02:14:36.532Z,31.90
2017-11-07T02:17:06.355Z,30.90
2017-11-07T02:19:36.201Z,32.27
2017-11-07T02:22:06.039Z,31.50
2017-11-07T02:24:35.890Z,32.83
2017-11-07T02:27:05.743Z,32.33
2017-11-07T02:29:35.584Z,32.33
2017-11-07T02:32:05.420Z,40.07
2017-11-07T02:34:35.433Z,38.33
2017-11-07T02:37:05.262Z,38.17
2017-11-07T02:39:35.151Z,36.20
2017-11-07T02:42:04.986Z,33.40
2017-11-07T02:44:34.822Z,35.90
2017-11-07T02:47:04.690Z,29.50
2017-11-07T02:49:34.525Z,28.77
2017-11-07T02:52:04.378Z,31.80
2017-11-07T02:54:34.209Z,32.20
2017-11-07T02:57:04.076Z,29.70
2017-11-07T02:59:33.928Z,35.47
2017-11-07T03:02:03.812Z,32.60
2017-11-07T03:04:33.667Z,32.00
2017-11-07T03:07:03.549Z,36.27
2017-11-07T03:09:33.387Z,32.33
2017-11-07T03:12:03.250Z,31.50
2017-11-07T03:14:33.101Z,35.33
2017-11-07T03:17:02.975Z,30.80
2017-11-07T03:19:32.794Z,27.57
2017-11-07T03:22:02.674Z,30.17
2017-11-07T03:24:32.508Z,27.07
2017-11-07T03:27:02.363Z,27.57
2017-11-07T03:29:32.210Z,33.57
2017-11-07T03:32:02.043Z,30.20
2017-11-07T03:34:31.898Z,31.37
2017-11-07T03:37:01.698Z,28.50
2017-11-07T03:39:31.538Z,32.70
2017-11-07T03:42:01.394Z,33.07
2017-11-07T03:44:31.250Z,33.43
2017-11-07T03:47:01.081Z,32.97
2017-11-07T03:49:30.959Z,35.70
2017-11-07T03:52:00.825Z,37.57
2017-11-07T03:54:30.651Z,40.40
2017-11-07T03:57:00.504Z,38.77
2017-11-07T03:59:30.359Z,33.07
2017-11-07T04:02:00.220Z,34.60
2017-11-07T04:04:30.068Z,34.87
2017-11-07T04:06:59.901Z,38.90
2017-11-07T04:09:29.752Z,36.30
2017-11-07T04:11:59.608Z,45.67
2017-11-07T04:14:29.434Z,35.33
2017-11-07T04:16:59.311Z,42.70
2017-11-07T04:19:29.145Z,40.73
2017-11-07T04:21:59.004Z,36.57
2017-11-07T04:24:28.899Z,37.77
2017-11-07T04:26:58.726Z,33.53
2017-11-07T04:29:28.598Z,37.07
2017-11-07T04:31:58.460Z,36.73
2017-11-07T04:34:28.295Z,37.00
2017-11-07T04:36:58.130Z,33.23
2017-11-07T04:39:27.976Z,35.30
2017-11-07T04:41:57.824Z,37.63
2017-11-07T04:44:28.802Z,32.53
2017-11-07T04:46:58.635Z,40.60
2017-11-07T04:49:28.502Z,41.63
2017-11-07T04:51:58.364Z,48.57
2017-11-07T04:54:28.308Z,37.10
2017-11-07T04:56:58.124Z,44.33
2017-11-07T04:59:28.005Z,41.20
2017-11-07T05:01:57.852Z,38.13
2017-11-07T05:04:27.718Z,40.70
2017-11-07T05:06:57.581Z,41.27
2017-11-07T05:09:27.403Z,40.50
2017-11-07T05:11:57.253Z,42.70
2017-11-07T05:14:27.066Z,34.47
2017-11-07T05:16:57.306Z,37.40
2017-11-07T05:19:27.149Z,23.23
2017-11-07T05:21:57.030Z,26.97
2017-11-07T05:24:26.862Z,34.70
2017-11-07T05:26:56.705Z,35.03
2017-11-07T05:29:26.530Z,29.80
2017-11-07T05:31:56.382Z,35.47
2017-11-07T05:34:26.246Z,37.70
2017-11-07T05:36:56.109Z,30.03
2017-11-07T05:39:26.038Z,35.23
2017-11-07T05:41:55.886Z,30.77
2017-11-07T05:44:25.728Z,27.37
2017-11-07T05:46:55.602Z,33.20
2017-11-07T05:49:25.495Z,29.00
2017-11-07T05:51:55.328Z,32.60
2017-11-07T05:54:25.175Z,26.03
2017-11-07T05:56:55.004Z,33.57
2017-11-07T05:59:24.866Z,33.10
2017-11-07T06:01:54.722Z,30.73
2017-11-07T06:04:24.680Z,31.57
2017-11-07T06:06:54.583Z,28.37
2017-11-07T06:09:24.450Z,32.13
2017-11-07T06:11:54.290Z,27.87
2017-11-07T06:14:24.153Z,32.07
2017-11-07T06:16:54.006Z,27.77
2017-11-07T06:19:23.878Z,24.13
2017-11-07T06:21:53.716Z,23.67
2017-11-07T06:24:23.547Z,27.10
2017-11-07T06:26:53.400Z,16.87
2017-11-07T06:29:23.241Z,21.97
2017-11-07T06:31:53.095Z,22.50
2017-11-07T06:34:22.934Z,20.00
2017-11-07T06:36:52.828Z,22.57
2017-11-07T06:39:22.679Z,23.90
2017-11-07T06:41:52.558Z,23.37
2017-11-07T06:44:22.395Z,21.57
2017-11-07T06:46:52.514Z,22.97
2017-11-07T06:49:22.401Z,24.50
2017-11-07T06:51:52.254Z,22.03
2017-11-07T06:54:22.105Z,25.37
2017-11-07T06:56:51.974Z,22.50
2017-11-07T06:59:21.852Z,24.73
2017-11-07T07:01:51.687Z,24.00
2017-11-07T07:04:21.554Z,26.93
2017-11-07T07:06:51.411Z,25.40
2017-11-07T07:09:21.278Z,25.60
2017-11-07T07:11:51.114Z,25.10
2017-11-07T07:14:20.990Z,26.43
2017-11-07T07:16:50.858Z,24.83
2017-11-07T07:19:20.740Z,22.13
2017-11-07T07:21:50.606Z,26.07
2017-11-07T07:24:20.518Z,24.20
2017-11-07T07:26:50.368Z,27.43
2017-11-07T07:29:20.227Z,27.07
2017-11-07T07:31:50.095Z,25.37
2017-11-07T07:34:19.926Z,30.50
2017-11-07T07:36:49.768Z,17.37
2017-11-07T07:39:19.613Z,25.30
2017-11-07T07:41:49.460Z,27.50
2017-11-07T07:44:19.320Z,27.93
2017-11-07T07:46:49.241Z,30.97
2017-11-07T07:49:19.108Z,29.23
2017-11-07T07:51:48.991Z,30.60
2017-11-07T07:54:18.853Z,34.20
2017-11-07T07:56:48.752Z,31.80
2017-11-07T07:59:18.599Z,37.23
2017-11-07T08:01:48.429Z,34.30
2017-11-07T08:04:18.300Z,29.30
2017-11-07T08:06:48.117Z,24.87
2017-11-07T08:09:18.026Z,27.43
2017-11-07T08:11:47.875Z,24.97
2017-11-07T08:14:17.733Z,29.13
2017-11-07T08:16:47.581Z,27.37
2017-11-07T08:19:17.441Z,25.17
2017-11-07T08:21:47.301Z,27.83
2017-11-07T08:24:17.181Z,23.27
2017-11-07T08:26:47.024Z,34.67
2017-11-07T08:29:16.878Z,31.97
2017-11-07T08:31:46.732Z,27.23
2017-11-07T08:34:16.587Z,15.83
2017-11-07T08:36:46.426Z,24.23
2017-11-07T08:39:16.327Z,25.90
2017-11-07T08:41:46.271Z,32.07
2017-11-07T08:44:16.143Z,34.60
2017-11-07T08:46:45.986Z,38.53
2017-11-07T08:49:15.837Z,37.20
2017-11-07T08:51:45.707Z,30.37
2017-11-07T08:54:15.556Z,26.87
2017-11-07T08:56:45.414Z,27.57
2017-11-07T08:59:15.254Z,24.60
2017-11-07T09:01:45.110Z,30.23
2017-11-07T09:04:14.943Z,21.70
2017-11-07T09:06:44.793Z,25.87
2017-11-07T09:09:14.608Z,22.80
2017-11-07T09:11:44.492Z,25.00
2017-11-07T09:14:14.357Z,30.20
2017-11-07T09:16:44.233Z,32.73
2017-11-07T09:19:14.070Z,27.37
2017-11-07T09:21:43.930Z,27.23
2017-11-07T09:24:13.779Z,23.40
2017-11-07T09:26:43.606Z,29.77
2017-11-07T09:29:13.498Z,25.37
2017-11-07T09:31:43.334Z,27.73
2017-11-07T09:34:13.194Z,25.00
2017-11-07T09:36:43.070Z,32.40
2017-11-07T09:39:12.926Z,31.30
2017-11-07T09:41:42.775Z,33.73
2017-11-07T09:44:12.618Z,32.10
2017-11-07T09:46:42.475Z,33.57
2017-11-07T09:49:12.312Z,36.33
2017-11-07T09:51:42.195Z,44.80
2017-11-07T09:54:12.023Z,42.30
2017-11-07T09:56:41.882Z,36.83
2017-11-07T09:59:11.747Z,31.40
2017-11-07T10:01:41.578Z,31.30
2017-11-07T10:04:11.452Z,36.70
2017-11-07T10:06:41.292Z,23.03
2017-11-07T10:09:11.146Z,21.80
2017-11-07T10:11:40.975Z,32.53
2017-11-07T10:14:10.843Z,32.17
2017-11-07T10:16:40.668Z,26.77
2017-11-07T10:19:10.534Z,36.27
2017-11-07T10:21:40.379Z,32.80
2017-11-07T10:24:10.225Z,31.33
2017-11-07T10:26:40.157Z,33.00
2017-11-07T10:29:10.026Z,35.20
2017-11-07T10:31:39.871Z,39.33
2017-11-07T10:34:09.755Z,39.50
2017-11-07T10:36:39.628Z,37.20
2017-11-07T10:39:09.429Z,25.40
2017-11-07T10:41:39.304Z,30.43
2017-11-07T10:44:09.142Z,25.07
2017-11-07T10:46:39.002Z,26.50
2017-11-07T10:49:08.843Z,19.37
2017-11-07T10:51:38.742Z,30.63
2017-11-07T10:54:08.566Z,35.10
2017-11-07T10:56:38.428Z,30.20
2017-11-07T10:59:08.274Z,30.83
2017-11-07T11:01:38.102Z,20.77
2017-11-07T11:04:07.953Z,26.20
2017-11-07T11:06:37.803Z,26.93
2017-11-07T11:09:07.673Z,25.90
2017-11-07T11:11:37.505Z,23.40
2017-11-07T11:14:07.354Z,21.50
2017-11-07T11:16:37.203Z,22.70
2017-11-07T11:19:07.110Z,21.87
2017-11-07T11:21:36.932Z,22.53
2017-11-07T11:24:06.856Z,19.77
2017-11-07T11:26:36.697Z,21.30
2017-11-07T11:29:06.530Z,24.40
2017-11-07T11:31:42.359Z,25.40
2017-11-07T11:34:12.168Z,29.93
2017-11-07T11:36:42.010Z,25.27
2017-11-07T11:39:11.822Z,24.43
2017-11-07T11:41:41.676Z,22.67
2017-11-07T11:44:11.510Z,22.33
2017-11-07T11:46:41.350Z,23.10
2017-11-07T11:49:11.197Z,21.83
2017-11-07T11:51:41.055Z,19.97
2017-11-07T11:54:10.909Z,22.07
2017-11-07T11:56:40.775Z,21.67
2017-11-07T11:59:10.616Z,20.43
2017-11-07T12:01:40.446Z,19.57
2017-11-07T12:04:10.313Z,23.67
2017-11-07T12:06:40.134Z,29.17
2017-11-07T12:09:09.990Z,18.00
2017-11-07T12:11:39.827Z,18.17
2017-11-07T12:14:09.664Z,18.87
2017-11-07T12:16:39.511Z,16.47
2017-11-07T12:19:09.402Z,19.50
2017-11-07T12:21:39.267Z,23.80
2017-11-07T12:24:10.579Z,16.63
2017-11-07T12:26:40.446Z,16.83
2017-11-07T12:29:10.282Z,16.87
2017-11-07T12:31:40.164Z,17.63
2017-11-07T12:34:10.022Z,17.37
2017-11-07T12:36:39.879Z,16.03
2017-11-07T12:39:09.710Z,15.47
2017-11-07T12:41:39.557Z,20.87
2017-11-07T12:44:09.438Z,16.67
2017-11-07T12:46:39.264Z,19.47
2017-11-07T12:49:09.117Z,20.67
2017-11-07T12:51:44.834Z,18.00
2017-11-07T12:54:14.671Z,16.90
2017-11-07T12:56:44.518Z,17.60
2017-11-07T12:59:14.340Z,19.80
2017-11-07T13:01:44.241Z,18.57
2017-11-07T13:04:14.073Z,16.33
2017-11-07T13:06:43.962Z,20.07
2017-11-07T13:09:13.835Z,15.53
2017-11-07T13:11:43.711Z,20.20
2017-11-07T13:14:13.546Z,16.13
2017-11-07T13:16:43.389Z,17.10
2017-11-07T13:19:13.231Z,16.20
2017-11-07T13:21:43.096Z,16.03
2017-11-07T13:24:12.957Z,17.80
2017-11-07T13:26:42.890Z,16.90
2017-11-07T13:29:12.722Z,17.70
2017-11-07T13:31:42.581Z,17.47
2017-11-07T13:34:12.422Z,14.73
2017-11-07T13:36:42.323Z,18.27
2017-11-07T13:39:12.183Z,17.30
2017-11-07T13:41:42.059Z,17.47
2017-11-07T13:44:11.944Z,18.63
2017-11-07T13:46:41.873Z,21.67
2017-11-07T13:49:11.770Z,27.67
2017-11-07T13:51:41.631Z,18.07
2017-11-07T13:54:11.487Z,15.93
2017-11-07T13:56:41.368Z,19.50
2017-11-07T13:59:11.283Z,20.13
2017-11-07T14:01:41.103Z,25.80
2017-11-07T14:04:10.964Z,25.50
2017-11-07T14:06:40.785Z,22.60
2017-11-07T14:09:10.733Z,19.43
2017-11-07T14:11:40.542Z,19.37
2017-11-07T14:14:10.390Z,24.93
2017-11-07T14:16:40.250Z,21.50
2017-11-07T14:19:10.158Z,21.07
2017-11-07T14:21:40.018Z,23.60
2017-11-07T14:24:09.869Z,24.17
2017-11-07T14:26:39.714Z,28.80
2017-11-07T14:29:09.565Z,22.33
2017-11-07T14:31:39.449Z,18.50
2017-11-07T14:34:09.263Z,18.87
2017-11-07T14:36:39.154Z,19.17
2017-11-07T14:39:09.009Z,20.07
2017-11-07T14:41:38.855Z,18.80
2017-11-07T14:44:08.710Z,19.80
2017-11-07T14:46:38.550Z,18.23
2017-11-07T14:49:08.386Z,26.00
2017-11-07T14:51:38.232Z,18.90
2017-11-07T14:54:08.123Z,21.20
2017-11-07T14:56:37.961Z,20.60
2017-11-07T14:59:07.866Z,22.90
2017-11-07T15:01:37.697Z,18.30
2017-11-07T15:04:07.555Z,17.70
2017-11-07T15:06:37.377Z,18.00
2017-11-07T15:09:07.291Z,19.07
2017-11-07T15:11:37.102Z,16.17
2017-11-07T15:14:07.047Z,15.57
2017-11-07T15:16:36.947Z,16.03
2017-11-07T15:19:06.806Z,14.10
2017-11-07T15:21:36.636Z,13.87
2017-11-07T15:24:06.469Z,14.70
2017-11-07T15:26:36.286Z,14.00
2017-11-07T15:29:06.178Z,16.73
2017-11-07T15:31:36.058Z,15.67
2017-11-07T15:34:05.938Z,14.97
2017-11-07T15:36:35.803Z,16.20
2017-11-07T15:39:05.685Z,17.93
2017-11-07T15:41:35.511Z,22.00
2017-11-07T15:44:05.380Z,15.87
2017-11-07T15:46:35.250Z,15.40
2017-11-07T15:49:05.114Z,16.90
2017-11-07T15:51:34.990Z,18.73
2017-11-07T15:54:04.815Z,19.00
2017-11-07T15:56:34.680Z,19.13
2017-11-07T15:59:04.544Z,18.30
2017-11-07T16:01:34.398Z,19.30
2017-11-07T16:04:04.270Z,14.60
2017-11-07T16:06:34.132Z,15.70
2017-11-07T16:09:04.039Z,15.00
2017-11-07T16:11:33.930Z,14.63
2017-11-07T16:14:03.770Z,16.53
2017-11-07T16:16:33.636Z,15.43
2017-11-07T16:19:03.478Z,17.30
2017-11-07T16:21:33.334Z,14.77
2017-11-07T16:24:03.166Z,19.13
2017-11-07T16:26:33.027Z,16.07
2017-11-07T16:29:02.876Z,20.20
2017-11-07T16:31:32.724Z,18.37
2017-11-07T16:34:02.626Z,18.30
2017-11-07T16:36:32.585Z,18.70
2017-11-07T16:39:02.474Z,16.67
2017-11-07T16:41:32.301Z,18.20
2017-11-07T16:44:02.198Z,18.67
2017-11-07T16:46:32.017Z,19.20
2017-11-07T16:49:01.888Z,16.70
2017-11-07T16:51:31.711Z,19.20
2017-11-07T16:54:01.589Z,14.80
2017-11-07T16:56:31.500Z,15.30
2017-11-07T16:59:01.321Z,16.57
2017-11-07T17:01:31.187Z,17.47
2017-11-07T17:04:01.109Z,18.30
2017-11-07T17:06:30.979Z,20.37
2017-11-07T17:09:00.899Z,20.47
2017-11-07T17:11:30.735Z,27.83
2017-11-07T17:14:00.703Z,23.97
2017-11-07T17:16:30.533Z,29.00
2017-11-07T17:19:00.403Z,21.07
2017-11-07T17:21:30.323Z,19.80
2017-11-07T17:24:00.222Z,22.83
2017-11-07T17:26:30.111Z,26.33
2017-11-07T17:28:59.942Z,25.27
2017-11-07T17:31:29.818Z,28.40
2017-11-07T17:33:59.628Z,28.20
2017-11-07T17:36:29.522Z,32.90
2017-11-07T17:38:59.408Z,32.80
2017-11-07T17:41:29.286Z,27.57
2017-11-07T17:43:59.152Z,25.40
2017-11-07T17:46:28.999Z,24.00
2017-11-07T17:48:58.895Z,26.30
2017-11-07T17:51:28.742Z,28.27
2017-11-07T17:53:58.619Z,28.53
2017-11-07T17:56:29.475Z,30.10
2017-11-07T17:58:59.359Z,29.33
2017-11-07T18:01:29.286Z,26.90
2017-11-07T18:03:59.123Z,25.87
2017-11-07T18:06:28.996Z,24.47
2017-11-07T18:08:58.825Z,27.07
2017-11-07T18:11:28.752Z,26.13
2017-11-07T18:13:58.592Z,26.83
2017-11-07T18:16:29.170Z,25.53
2017-11-07T18:18:59.070Z,26.93
2017-11-07T18:21:28.998Z,28.27
2017-11-07T18:23:58.941Z,27.43
2017-11-07T18:26:28.929Z,36.87
2017-11-07T18:28:58.765Z,32.33
2017-11-07T18:31:29.214Z,37.37
2017-11-07T18:33:59.105Z,32.97
2017-11-07T18:36:29.113Z,27.50
2017-11-07T18:38:59.004Z,36.17
2017-11-07T18:41:28.841Z,28.47
2017-11-07T18:43:58.683Z,31.33
2017-11-07T18:46:28.514Z,41.20
2017-11-07T18:48:58.416Z,37.80
2017-11-07T18:51:28.232Z,42.50
2017-11-07T18:53:58.117Z,34.10
2017-11-07T18:56:27.972Z,36.17
2017-11-07T18:58:57.889Z,36.07
2017-11-07T19:01:27.733Z,23.13
2017-11-07T19:03:57.625Z,29.80
2017-11-07T19:06:27.504Z,37.23
2017-11-07T19:08:57.326Z,37.10
2017-11-07T19:11:27.219Z,33.10
2017-11-07T19:13:57.050Z,34.63
2017-11-07T19:16:26.927Z,30.03
2017-11-07T19:18:56.787Z,31.67
2017-11-07T19:21:26.767Z,30.00
2017-11-07T19:23:56.626Z,23.57
2017-11-07T19:26:26.504Z,28.90
2017-11-07T19:28:56.406Z,30.40
2017-11-07T19:31:26.279Z,30.33
2017-11-07T19:33:56.122Z,26.93
2017-11-07T19:36:26.061Z,31.40
2017-11-07T19:38:55.939Z,27.03
2017-11-07T19:41:25.835Z,27.63
2017-11-07T19:43:55.697Z,29.13
2017-11-07T19:46:25.558Z,28.70
2017-11-07T19:48:55.439Z,27.10
2017-11-07T19:51:25.307Z,28.57
2017-11-07T19:53:55.143Z,27.57
2017-11-07T19:56:24.986Z,26.40
2017-11-07T19:58:54.861Z,24.97
2017-11-07T20:01:24.728Z,28.67
2017-11-07T20:03:54.550Z,30.67
2017-11-07T20:06:24.457Z,32.10
2017-11-07T20:08:54.282Z,32.93
2017-11-07T20:11:24.374Z,26.97
2017-11-07T20:13:54.231Z,27.97
2017-11-07T20:16:24.127Z,29.33
2017-11-07T20:18:53.979Z,26.13
2017-11-07T20:21:23.817Z,26.27
2017-11-07T20:23:53.670Z,21.70
2017-11-07T20:26:23.522Z,22.40
2017-11-07T20:28:53.354Z,27.30
2017-11-07T20:31:23.200Z,25.73
2017-11-07T20:33:53.069Z,21.37
2017-11-07T20:36:22.896Z,38.23
2017-11-07T20:38:52.752Z,26.27
2017-11-07T20:41:22.593Z,26.53
2017-11-07T20:43:52.739Z,27.47
2017-11-07T20:46:22.610Z,23.47
2017-11-07T20:48:52.461Z,30.40
2017-11-07T20:51:22.344Z,30.63
2017-11-07T20:53:52.228Z,28.87
2017-11-07T20:56:22.086Z,33.47
2017-11-07T20:58:51.945Z,31.40
2017-11-07T21:01:21.803Z,28.60
2017-11-07T21:03:51.695Z,36.13
2017-11-07T21:06:21.613Z,36.27
2017-11-07T21:08:51.435Z,30.83
2017-11-07T21:11:21.325Z,27.00
2017-11-07T21:13:51.224Z,27.17
2017-11-07T21:16:21.062Z,32.93
2017-11-07T21:18:51.710Z,28.47
2017-11-07T21:21:25.475Z,31.00
2017-11-07T21:23:55.317Z,27.83
2017-11-07T21:26:25.269Z,30.70
2017-11-07T21:28:55.131Z,36.10
2017-11-07T21:31:25.072Z,32.77
2017-11-07T21:33:54.964Z,27.47
2017-11-07T21:36:24.876Z,30.07
2017-11-07T21:38:54.764Z,28.90
2017-11-07T21:41:24.599Z,27.53
2017-11-07T21:43:56.047Z,28.80
2017-11-07T21:46:25.886Z,27.17
2017-11-07T21:48:55.738Z,26.77
2017-11-07T21:51:25.570Z,25.27
2017-11-07T21:53:55.414Z,27.70
2017-11-07T21:56:25.262Z,26.10
2017-11-07T21:58:55.097Z,25.23
2017-11-07T22:01:24.952Z,25.33
2017-11-07T22:03:54.826Z,27.90
2017-11-07T22:06:24.643Z,28.13
2017-11-07T22:08:54.483Z,23.57
2017-11-07T22:11:24.354Z,34.37
2017-11-07T22:13:54.209Z,29.00
2017-11-07T22:16:24.044Z,27.47
2017-11-07T22:18:53.873Z,27.43
2017-11-07T22:21:23.733Z,27.50
2017-11-07T22:23:53.563Z,25.80
2017-11-07T22:26:23.410Z,28.00
2017-11-07T22:28:53.234Z,23.43
2017-11-07T22:31:23.131Z,27.97
2017-11-07T22:33:52.981Z,26.50
2017-11-07T22:36:22.847Z,26.73
2017-11-07T22:38:52.675Z,29.80
2017-11-07T22:41:22.553Z,25.27
2017-11-07T22:43:52.407Z,27.53
2017-11-07T22:46:22.249Z,31.93
2017-11-07T22:48:52.144Z,31.17
2017-11-07T22:51:22.081Z,27.00
2017-11-07T22:53:51.905Z,29.33
2017-11-07T22:56:21.726Z,29.37
2017-11-07T22:58:51.600Z,27.80
2017-11-07T23:01:21.428Z,28.13
2017-11-07T23:03:51.295Z,30.33
2017-11-07T23:06:21.112Z,27.47
2017-11-07T23:08:50.950Z,31.33
2017-11-07T23:11:20.785Z,33.97
2017-11-07T23:13:50.659Z,30.63
2017-11-07T23:16:20.478Z,32.87
2017-11-07T23:18:50.349Z,28.23
2017-11-07T23:21:20.198Z,31.03
2017-11-07T23:23:50.025Z,22.63
2017-11-07T23:26:19.908Z,25.63
2017-11-07T23:28:49.747Z,27.20
2017-11-07T23:31:19.599Z,29.03
2017-11-07T23:33:49.416Z,28.17
2017-11-07T23:36:19.282Z,28.30
2017-11-07T23:38:49.122Z,26.23
2017-11-07T23:41:19.003Z,27.80
2017-11-07T23:43:48.819Z,25.50
2017-11-07T23:46:18.662Z,25.23
2017-11-07T23:48:51.170Z,26.80
2017-11-07T23:51:21.077Z,29.07
2017-11-07T23:53:50.902Z,27.37
2017-11-07T23:56:20.756Z,33.53
2017-11-07T23:58:50.643Z,32.13
